This is the latest recevied weather packets stored in our database for station/object WW3TRG. If no packets are shown the sender has not sent any weather packets the latest 1 day(s).
| Time | Temp. | Humidity | Pressure | Rain* | Wind** | Luminosity | Snow |
|---|---|---|---|---|---|---|---|
| 1778029976 | 17.78° C | 73% | 1007.8 hPa | 0 mm | - | 0 W/m² | - |
| 1778029674 | 18.33° C | 72% | 1007.9 hPa | 0 mm | - | 0 W/m² | - |
| 1778029372 | 18.33° C | 72% | 1007.7 hPa | 0 mm | - | 0 W/m² | - |
| 1778029069 | 18.33° C | 72% | 1007.4 hPa | 0 mm | - | 0 W/m² | - |
| 1778028461 | 18.89° C | 70% | 1007.3 hPa | 0 mm | - | 0 W/m² | - |
| 1778027855 | 18.89° C | 67% | 1007.5 hPa | 0 mm | - | 0 W/m² | - |
| 1778026944 | 20° C | 65% | 1007.2 hPa | 0 mm | - | 0 W/m² | - |
| 1778026640 | 20° C | 64% | 1007.2 hPa | 0 mm | - | 0 W/m² | - |
| 1778025127 | 22.22° C | 52% | 1007 hPa | 0 mm | - | 0 W/m² | - |
| 1778024521 | 23.33° C | 48% | 1007 hPa | 0 mm | - | 5 W/m² | - |
| 1778024217 | 23.33° C | 48% | 1006.8 hPa | 0 mm | - | 11 W/m² | - |
| 1778023310 | 23.89° C | 48% | 1007 hPa | 0 mm | - | 22 W/m² | - |
| 1778023006 | 23.89° C | 49% | 1006.8 hPa | 0 mm | - | 18 W/m² | - |
| 1778021492 | 25.56° C | 42% | 1006.5 hPa | 0 mm | - | 17 W/m² | - |
| 1778019672 | 26.11° C | 46% | 1006.4 hPa | 0 mm | - | 64 W/m² | - |
| 1778019369 | 26.11° C | 41% | 1006.3 hPa | 0 mm | - | 71 W/m² | - |
| 1778018763 | 26.11° C | 44% | 1006.2 hPa | 0 mm | - | 73 W/m² | - |
| 1778014826 | 28.33° C | 41% | 1006.1 hPa | 0 mm | - | 268 W/m² | - |
| 1778014221 | 28.89° C | 37% | 1006.2 hPa | 0 mm | - | 377 W/m² | - |
| 1778013312 | 28.33° C | 39% | 1006.1 hPa | 0 mm | - | 245 W/m² | - |
| 1778013009 | 28.89° C | 39% | 1006.1 hPa | 0 mm | - | 395 W/m² | - |
| 1778012401 | 28.89° C | 38% | 1005.9 hPa | 0 mm | - | 263 W/m² | - |
| 1778011189 | 28.89° C | 41% | 1006.4 hPa | 0 mm | - | 482 W/m² | - |
| 1778010281 | 28.33° C | 41% | 1006.4 hPa | 0 mm | - | 116 W/m² | - |
| 1778009981 | 29.44° C | 39% | 1006.4 hPa | 0 mm | - | 453 W/m² | - |
* Rain latest hour (hover to see other rain measurements)
** Current wind speed in m/s (hover to see current wind gust speed)